createdAt,value
2023-09-22T00:02:12.979Z,0.90
2023-09-22T00:07:14.735Z,0.90
2023-09-22T00:12:16.980Z,0.95
2023-09-22T00:17:19.076Z,0.90
2023-09-22T00:22:21.103Z,0.82
2023-09-22T00:27:23.014Z,0.68
2023-09-22T00:32:24.843Z,0.50
2023-09-22T00:37:26.690Z,0.65
2023-09-22T00:42:28.629Z,0.45
2023-09-22T00:47:30.797Z,0.50
2023-09-22T00:52:33.034Z,0.40
2023-09-22T00:57:35.300Z,0.40
2023-09-22T01:02:38.270Z,0.40
2023-09-22T01:07:40.265Z,0.43
2023-09-22T01:12:42.137Z,0.50
2023-09-22T01:17:44.458Z,0.30
2023-09-22T01:22:46.264Z,0.32
2023-09-22T01:27:48.200Z,0.50
2023-09-22T01:32:49.968Z,0.45
2023-09-22T01:37:56.428Z,0.50
2023-09-22T01:42:58.741Z,0.50
2023-09-22T01:48:00.582Z,0.40
2023-09-22T01:53:02.414Z,0.40
2023-09-22T01:58:05.553Z,0.50
2023-09-22T02:03:07.564Z,0.50
2023-09-22T02:08:09.600Z,0.50
2023-09-22T02:13:11.366Z,0.60
2023-09-22T02:18:13.123Z,0.50
2023-09-22T02:23:14.897Z,0.70
2023-09-22T02:28:16.583Z,0.50
2023-09-22T02:33:18.279Z,0.52
2023-09-22T02:38:19.977Z,0.82
2023-09-22T02:43:21.736Z,0.50
2023-09-22T02:48:23.522Z,0.80
2023-09-22T02:53:25.369Z,0.43
2023-09-22T02:58:27.075Z,0.50
2023-09-22T03:03:29.039Z,0.52
2023-09-22T03:08:31.066Z,0.52
2023-09-22T03:13:32.907Z,0.30
2023-09-22T03:18:34.739Z,0.57
2023-09-22T03:23:36.483Z,0.60
2023-09-22T03:28:38.499Z,0.60
2023-09-22T03:33:41.531Z,0.63
2023-09-22T03:38:48.198Z,0.60
2023-09-22T03:43:49.914Z,0.60
2023-09-22T03:48:51.702Z,0.70
2023-09-22T03:53:53.486Z,0.60
2023-09-22T03:58:55.311Z,0.70
2023-09-22T04:03:57.128Z,0.47
2023-09-22T04:08:59.258Z,0.60
2023-09-22T04:14:01.038Z,0.50
2023-09-22T04:19:02.944Z,0.70
2023-09-22T04:24:04.945Z,0.50
2023-09-22T04:29:06.871Z,0.75
2023-09-22T04:34:08.551Z,0.70
2023-09-22T04:39:10.273Z,0.50
2023-09-22T04:44:12.084Z,0.90
2023-09-22T04:49:13.862Z,0.70
2023-09-22T04:54:15.935Z,0.80
2023-09-22T04:59:17.662Z,0.70
2023-09-22T05:04:19.994Z,0.60
2023-09-22T05:09:21.924Z,0.98
2023-09-22T05:14:23.762Z,0.80
2023-09-22T05:19:26.498Z,0.68
2023-09-22T05:24:28.385Z,0.75
2023-09-22T05:29:30.582Z,0.60
2023-09-22T05:34:32.339Z,0.80
2023-09-22T05:39:34.866Z,1.35
2023-09-22T05:44:36.698Z,0.82
2023-09-22T05:49:38.389Z,1.23
2023-09-22T05:54:40.191Z,1.00
2023-09-22T05:59:42.037Z,1.08
2023-09-22T06:04:43.839Z,1.00
2023-09-22T06:09:46.976Z,1.13
2023-09-22T06:14:48.757Z,1.20
2023-09-22T06:19:50.432Z,1.63
2023-09-22T06:24:52.506Z,1.25
2023-09-22T06:29:54.782Z,1.10
2023-09-22T06:34:57.687Z,1.10
2023-09-22T06:39:59.617Z,1.00
2023-09-22T06:45:01.466Z,1.70
2023-09-22T06:50:09.098Z,1.40
2023-09-22T06:55:14.819Z,1.40
2023-09-22T07:00:19.374Z,2.03
2023-09-22T07:05:21.999Z,8.20
2023-09-22T07:10:25.825Z,3.85
2023-09-22T07:15:27.574Z,2.88
2023-09-22T07:20:29.287Z,19.48
2023-09-22T07:25:31.085Z,12.85
2023-09-22T07:30:33.411Z,21.10
2023-09-22T07:35:35.274Z,22.13
2023-09-22T07:40:37.373Z,14.32
2023-09-22T07:45:40.569Z,3.40
2023-09-22T07:50:42.810Z,17.25
2023-09-22T07:55:45.460Z,3.90
2023-09-22T08:00:47.949Z,1.25
2023-09-22T08:05:52.627Z,1.20
2023-09-22T08:10:54.772Z,1.60
2023-09-22T08:15:56.728Z,1.83
2023-09-22T08:20:59.654Z,1.30
2023-09-22T08:26:06.738Z,1.23
2023-09-22T08:31:08.526Z,1.40
2023-09-22T08:36:10.481Z,2.00
2023-09-22T08:41:12.867Z,5.05
2023-09-22T08:46:15.618Z,5.25
2023-09-22T08:51:18.807Z,3.17
2023-09-22T08:56:23.026Z,2.25
2023-09-22T09:01:25.380Z,2.55
2023-09-22T09:06:27.322Z,2.45
2023-09-22T09:11:29.085Z,3.20
2023-09-22T09:16:34.488Z,2.47
2023-09-22T09:21:36.330Z,1.95
2023-09-22T09:26:38.063Z,3.33
2023-09-22T09:31:43.745Z,2.30
2023-09-22T09:36:45.595Z,2.00
2023-09-22T09:41:47.624Z,1.20
2023-09-22T09:46:49.522Z,1.42
2023-09-22T09:51:53.153Z,1.70
2023-09-22T09:56:55.396Z,1.73
2023-09-22T10:01:58.111Z,3.45
2023-09-22T10:07:01.452Z,1.50
2023-09-22T10:12:04.968Z,2.83
2023-09-22T10:17:24.089Z,1.35
2023-09-22T10:22:28.681Z,1.10
2023-09-22T10:28:01.719Z,1.55
2023-09-22T10:33:16.815Z,0.95
2023-09-22T10:38:21.877Z,1.02
2023-09-22T10:43:23.683Z,1.10
2023-09-22T10:48:32.403Z,0.90
2023-09-22T10:53:39.653Z,1.30
2023-09-22T10:58:49.387Z,0.85
2023-09-22T11:03:54.426Z,0.90
2023-09-22T11:08:56.681Z,0.95
2023-09-22T11:13:58.788Z,1.20
2023-09-22T11:19:09.988Z,1.40
2023-09-22T11:24:12.177Z,1.05
2023-09-22T11:29:16.970Z,1.35
2023-09-22T11:34:21.031Z,1.38
2023-09-22T11:39:27.533Z,1.10
2023-09-22T11:44:29.679Z,1.13
2023-09-22T11:49:38.609Z,1.38
2023-09-22T11:54:40.796Z,1.20
2023-09-22T11:59:42.614Z,1.08
2023-09-22T12:04:44.409Z,1.15
2023-09-22T12:09:46.245Z,1.10
2023-09-22T12:14:48.009Z,1.15
2023-09-22T12:19:49.895Z,1.25
2023-09-22T12:24:51.932Z,1.23
2023-09-22T12:29:53.626Z,1.10
2023-09-22T12:34:55.671Z,1.00
2023-09-22T12:39:57.602Z,1.20
2023-09-22T12:45:00.014Z,1.27
2023-09-22T12:50:06.111Z,1.13
2023-09-22T12:55:08.015Z,0.98
2023-09-22T13:00:12.178Z,1.00
2023-09-22T13:05:14.145Z,1.25
2023-09-22T13:10:16.800Z,1.10
2023-09-22T13:15:19.353Z,1.10
2023-09-22T13:20:21.450Z,0.95
2023-09-22T13:25:23.595Z,1.60
2023-09-22T13:30:25.422Z,0.90
2023-09-22T13:35:28.140Z,0.90
2023-09-22T13:40:34.516Z,1.17
2023-09-22T13:45:37.846Z,1.10
2023-09-22T13:50:41.149Z,1.30
2023-09-22T13:55:42.989Z,1.10
2023-09-22T14:00:46.629Z,1.15
2023-09-22T14:05:48.528Z,1.13
2023-09-22T14:10:50.369Z,0.90
2023-09-22T14:15:52.075Z,0.90
2023-09-22T14:20:54.050Z,0.90
2023-09-22T14:25:57.371Z,1.00
2023-09-22T14:30:59.407Z,1.20
2023-09-22T14:36:06.371Z,1.10
2023-09-22T14:41:09.244Z,1.10
2023-09-22T14:46:16.008Z,1.23
2023-09-22T14:51:17.831Z,1.33
2023-09-22T14:56:19.799Z,1.00
2023-09-22T15:01:21.636Z,1.00
2023-09-22T15:06:23.416Z,0.98
2023-09-22T15:11:25.772Z,1.10
2023-09-22T15:16:27.703Z,1.25
2023-09-22T15:21:29.405Z,1.00
2023-09-22T15:26:31.215Z,1.65
2023-09-22T15:31:33.026Z,1.10
2023-09-22T15:36:34.825Z,1.13
2023-09-22T15:41:37.172Z,2.00
2023-09-22T15:46:40.207Z,1.33
2023-09-22T15:51:41.988Z,1.10
2023-09-22T15:56:43.874Z,1.33
2023-09-22T16:01:45.879Z,1.45
2023-09-22T16:06:47.828Z,1.00
2023-09-22T16:11:49.960Z,1.15
2023-09-22T16:16:51.810Z,1.40
2023-09-22T16:21:53.599Z,1.10
2023-09-22T16:26:55.315Z,1.25
2023-09-22T16:32:00.351Z,1.40
2023-09-22T16:37:02.406Z,1.55
2023-09-22T16:42:04.408Z,1.10
2023-09-22T16:47:06.331Z,1.85
2023-09-22T16:52:08.257Z,1.40
2023-09-22T16:57:11.617Z,1.60
2023-09-22T17:02:13.607Z,1.65
2023-09-22T17:07:15.385Z,1.40
2023-09-22T17:12:17.674Z,1.55
2023-09-22T17:17:19.546Z,1.48
2023-09-22T17:22:24.755Z,1.80
2023-09-22T17:27:27.061Z,2.15
2023-09-22T17:32:28.950Z,1.85
2023-09-22T17:37:31.435Z,2.10
2023-09-22T17:42:33.235Z,1.90
2023-09-22T17:47:35.084Z,1.45
2023-09-22T17:52:36.879Z,1.75
2023-09-22T17:57:38.671Z,1.27
2023-09-22T18:02:40.537Z,1.77
2023-09-22T18:07:42.414Z,1.90
2023-09-22T18:12:44.213Z,1.60
2023-09-22T18:17:47.536Z,1.48
2023-09-22T18:22:49.300Z,1.30
2023-09-22T18:27:51.449Z,1.58
2023-09-22T18:32:53.486Z,1.50
2023-09-22T18:37:55.877Z,1.40
2023-09-22T18:42:57.621Z,1.48
2023-09-22T18:48:00.004Z,1.38
2023-09-22T18:53:07.115Z,1.48
2023-09-22T18:58:09.567Z,1.30
2023-09-22T19:03:12.531Z,1.58
2023-09-22T19:08:14.423Z,1.70
2023-09-22T19:13:16.303Z,1.45
2023-09-22T19:18:18.738Z,1.77
2023-09-22T19:23:20.622Z,1.65
2023-09-22T19:28:22.426Z,1.77
2023-09-22T19:33:24.518Z,1.15
2023-09-22T19:38:27.221Z,1.00
2023-09-22T19:43:29.505Z,1.50
2023-09-22T19:48:32.348Z,1.40
2023-09-22T19:53:35.449Z,1.20
2023-09-22T19:58:38.284Z,1.23
2023-09-22T20:03:42.007Z,1.30
2023-09-22T20:08:44.117Z,1.70
2023-09-22T20:13:46.317Z,1.55
2023-09-22T20:18:49.484Z,1.58
2023-09-22T20:23:51.211Z,1.55
2023-09-22T20:28:53.406Z,1.60
2023-09-22T20:33:55.181Z,1.55
2023-09-22T20:38:57.614Z,1.58
2023-09-22T20:43:59.752Z,1.40
2023-09-22T20:49:02.001Z,1.67
2023-09-22T20:54:04.027Z,1.48
2023-09-22T20:59:05.901Z,1.42
2023-09-22T21:04:08.739Z,1.30
2023-09-22T21:09:16.961Z,1.25
2023-09-22T21:14:19.250Z,1.50
2023-09-22T21:19:22.351Z,1.42
2023-09-22T21:24:26.248Z,1.40
2023-09-22T21:29:28.045Z,1.50
2023-09-22T21:34:29.806Z,1.20
2023-09-22T21:39:31.673Z,1.17
2023-09-22T21:44:33.771Z,1.40
2023-09-22T21:49:35.493Z,1.38
2023-09-22T21:54:37.234Z,1.20
2023-09-22T21:59:39.602Z,1.63
2023-09-22T22:04:45.491Z,1.17
2023-09-22T22:09:47.473Z,1.08
2023-09-22T22:14:49.276Z,1.20
2023-09-22T22:19:52.493Z,1.30
2023-09-22T22:24:54.330Z,1.02
2023-09-22T22:29:56.180Z,1.20
2023-09-22T22:34:59.998Z,1.23
2023-09-22T22:40:01.916Z,0.90
2023-09-22T22:45:04.149Z,1.20
2023-09-22T22:50:06.441Z,0.98
2023-09-22T22:55:08.534Z,1.02
2023-09-22T23:00:10.732Z,0.88
2023-09-22T23:05:12.664Z,0.93
2023-09-22T23:10:16.804Z,0.70
2023-09-22T23:15:21.595Z,0.88
2023-09-22T23:20:35.258Z,0.90
2023-09-22T23:25:40.226Z,0.90
2023-09-22T23:30:42.146Z,0.73
2023-09-22T23:35:44.238Z,0.70
2023-09-22T23:40:48.036Z,0.93
2023-09-22T23:45:52.574Z,0.70
2023-09-22T23:50:58.402Z,1.17
2023-09-22T23:56:03.676Z,0.88
